createdAt,value
2018-05-02T00:00:06.912Z,3.50
2018-05-02T00:02:33.623Z,3.67
2018-05-02T00:05:01.116Z,3.63
2018-05-02T00:07:27.816Z,3.47
2018-05-02T00:09:54.742Z,3.80
2018-05-02T00:12:21.480Z,3.90
2018-05-02T00:14:48.132Z,3.33
2018-05-02T00:17:14.813Z,3.80
2018-05-02T00:19:41.468Z,4.07
2018-05-02T00:22:08.289Z,3.63
2018-05-02T00:24:34.908Z,4.00
2018-05-02T00:27:02.331Z,4.20
2018-05-02T00:29:28.973Z,3.47
2018-05-02T00:31:55.604Z,3.43
2018-05-02T00:34:22.276Z,4.07
2018-05-02T00:36:49.778Z,4.10
2018-05-02T00:39:16.500Z,3.87
2018-05-02T00:41:43.201Z,3.40
2018-05-02T00:44:10.520Z,3.80
2018-05-02T00:46:37.250Z,3.77
2018-05-02T00:49:16.010Z,3.80
2018-05-02T00:51:42.871Z,3.83
2018-05-02T00:54:10.381Z,4.10
2018-05-02T00:56:37.365Z,3.73
2018-05-02T00:59:04.256Z,3.93
2018-05-02T01:01:31.075Z,3.90
2018-05-02T01:03:59.194Z,4.20
2018-05-02T01:06:26.058Z,4.10
2018-05-02T01:08:52.875Z,3.90
2018-05-02T01:11:19.576Z,4.20
2018-05-02T01:13:47.129Z,4.17
2018-05-02T01:16:14.715Z,4.17
2018-05-02T01:18:41.638Z,3.90
2018-05-02T01:21:09.325Z,3.93
2018-05-02T01:23:36.022Z,3.53
2018-05-02T01:26:03.327Z,4.17
2018-05-02T01:28:29.984Z,3.90
2018-05-02T01:30:56.696Z,3.63
2018-05-02T01:33:23.504Z,3.70
2018-05-02T01:35:50.968Z,3.70
2018-05-02T01:38:18.674Z,4.00
2018-05-02T01:40:46.208Z,3.87
2018-05-02T01:43:13.909Z,3.80
2018-05-02T01:45:40.748Z,3.97
2018-05-02T01:48:07.464Z,4.10
2018-05-02T01:50:34.285Z,4.20
2018-05-02T01:53:00.979Z,3.93
2018-05-02T01:55:27.976Z,4.03
2018-05-02T01:57:55.636Z,4.00
2018-05-02T02:00:23.509Z,3.90
2018-05-02T02:02:50.580Z,4.00
2018-05-02T02:05:17.434Z,3.80
2018-05-02T02:07:44.309Z,4.23
2018-05-02T02:10:11.307Z,4.00
2018-05-02T02:12:37.988Z,3.90
2018-05-02T02:15:04.751Z,4.00
2018-05-02T02:17:31.771Z,3.90
2018-05-02T02:19:58.641Z,3.90
2018-05-02T02:22:25.427Z,4.00
2018-05-02T02:24:52.382Z,4.43
2018-05-02T02:27:20.207Z,3.87
2018-05-02T02:29:47.381Z,4.60
2018-05-02T02:32:14.504Z,4.00
2018-05-02T02:34:41.424Z,4.67
2018-05-02T02:37:09.124Z,4.30
2018-05-02T02:39:36.607Z,3.97
2018-05-02T02:42:03.699Z,4.73
2018-05-02T02:44:31.118Z,3.70
2018-05-02T02:46:58.475Z,4.33
2018-05-02T02:49:25.588Z,4.43
2018-05-02T02:51:53.448Z,4.17
2018-05-02T02:54:21.992Z,4.00
2018-05-02T02:56:48.912Z,4.10
2018-05-02T02:59:15.676Z,4.53
2018-05-02T03:01:42.440Z,3.90
2018-05-02T03:04:09.076Z,4.43
2018-05-02T03:06:35.727Z,4.30
2018-05-02T03:09:02.391Z,4.13
2018-05-02T03:11:29.462Z,4.30
2018-05-02T03:13:56.319Z,4.07
2018-05-02T03:16:23.164Z,4.07
2018-05-02T03:18:49.996Z,4.20
2018-05-02T03:21:17.066Z,4.53
2018-05-02T03:23:43.721Z,4.20
2018-05-02T03:26:10.370Z,4.10
2018-05-02T03:28:37.845Z,4.03
2018-05-02T03:31:05.255Z,4.07
2018-05-02T03:33:32.040Z,4.07
2018-05-02T03:35:59.795Z,4.07
2018-05-02T03:38:27.209Z,4.07
2018-05-02T03:40:54.853Z,4.07
2018-05-02T03:43:21.596Z,4.00
2018-05-02T03:45:48.462Z,4.40
2018-05-02T03:48:15.127Z,4.30
2018-05-02T03:50:41.793Z,4.87
2018-05-02T03:53:08.748Z,4.80
2018-05-02T03:55:35.435Z,4.00
2018-05-02T03:58:02.298Z,4.63
2018-05-02T04:00:47.474Z,4.67
2018-05-02T04:03:33.213Z,4.20
2018-05-02T04:06:16.090Z,4.07
2018-05-02T04:08:43.792Z,4.20
2018-05-02T04:11:10.475Z,4.50
2018-05-02T04:13:37.098Z,4.53
2018-05-02T04:16:03.931Z,4.23
2018-05-02T04:18:30.661Z,4.37
2018-05-02T04:20:57.334Z,4.47
2018-05-02T04:23:25.489Z,3.90
2018-05-02T04:25:52.106Z,4.77
2018-05-02T04:28:19.616Z,4.87
2018-05-02T04:30:46.988Z,4.70
2018-05-02T04:33:14.345Z,4.20
2018-05-02T04:35:42.721Z,4.63
2018-05-02T04:38:09.341Z,4.40
2018-05-02T04:40:36.121Z,4.83
2018-05-02T04:43:02.836Z,4.77
2018-05-02T04:45:30.219Z,4.23
2018-05-02T04:47:58.586Z,4.37
2018-05-02T04:50:26.032Z,4.33
2018-05-02T04:52:52.743Z,4.50
2018-05-02T04:55:20.248Z,4.80
2018-05-02T04:57:47.597Z,4.20
2018-05-02T05:00:14.225Z,4.43
2018-05-02T05:02:41.776Z,4.07
2018-05-02T05:05:10.536Z,4.73
2018-05-02T05:07:37.166Z,4.17
2018-05-02T05:10:03.908Z,4.00
2018-05-02T05:12:31.230Z,3.53
2018-05-02T05:14:58.026Z,4.60
2018-05-02T05:17:25.572Z,4.30
2018-05-02T05:19:52.882Z,4.23
2018-05-02T05:22:19.542Z,4.07
2018-05-02T05:24:46.234Z,4.13
2018-05-02T05:27:12.892Z,3.93
2018-05-02T05:29:39.564Z,3.80
2018-05-02T05:32:06.969Z,3.43
2018-05-02T05:34:34.326Z,3.50
2018-05-02T05:37:01.944Z,3.40
2018-05-02T05:39:29.568Z,3.63
2018-05-02T05:41:56.324Z,3.73
2018-05-02T05:44:23.020Z,3.13
2018-05-02T05:46:50.563Z,3.80
2018-05-02T05:49:17.311Z,3.47
2018-05-02T05:51:44.790Z,3.93
2018-05-02T05:54:11.914Z,4.03
2018-05-02T05:56:38.365Z,3.90
2018-05-02T05:59:06.664Z,3.70
2018-05-02T06:01:34.148Z,3.97
2018-05-02T06:04:00.939Z,4.17
2018-05-02T06:06:28.855Z,3.90
2018-05-02T06:08:55.545Z,4.10
2018-05-02T06:11:23.321Z,4.43
2018-05-02T06:13:50.799Z,3.93
2018-05-02T06:16:18.075Z,4.87
2018-05-02T06:18:44.988Z,4.43
2018-05-02T06:21:11.905Z,4.43
2018-05-02T06:23:40.125Z,4.50
2018-05-02T06:26:06.754Z,4.80
2018-05-02T06:28:33.400Z,4.53
2018-05-02T06:31:01.785Z,3.97
2018-05-02T06:33:28.568Z,4.43
2018-05-02T06:35:55.181Z,4.50
2018-05-02T06:38:21.888Z,3.63
2018-05-02T06:40:48.570Z,4.73
2018-05-02T06:43:15.312Z,4.20
2018-05-02T06:45:42.328Z,3.80
2018-05-02T06:48:09.175Z,4.03
2018-05-02T06:50:35.951Z,3.90
2018-05-02T06:53:02.652Z,4.17
2018-05-02T06:55:29.297Z,4.00
2018-05-02T06:57:55.925Z,4.20
2018-05-02T07:00:22.634Z,4.97
2018-05-02T07:02:51.055Z,3.93
2018-05-02T07:05:18.579Z,4.60
2018-05-02T07:07:45.215Z,4.40
2018-05-02T07:10:12.697Z,4.20
2018-05-02T07:12:39.347Z,4.23
2018-05-02T07:15:05.956Z,4.50
2018-05-02T07:17:33.654Z,4.50
2018-05-02T07:20:00.401Z,4.23
2018-05-02T07:22:27.056Z,5.00
2018-05-02T07:24:53.932Z,4.23
2018-05-02T07:27:20.625Z,4.20
2018-05-02T07:29:47.924Z,4.20
2018-05-02T07:32:14.597Z,4.07
2018-05-02T07:34:43.594Z,4.70
2018-05-02T07:37:10.644Z,4.53
2018-05-02T07:39:37.487Z,4.10
2018-05-02T07:42:04.127Z,4.30
2018-05-02T07:44:31.508Z,4.30
2018-05-02T07:46:58.216Z,4.13
2018-05-02T07:49:24.845Z,4.27
2018-05-02T07:51:51.686Z,4.30
2018-05-02T07:54:18.445Z,4.43
2018-05-02T07:56:47.473Z,4.27
2018-05-02T07:59:14.199Z,4.30
2018-05-02T08:01:42.417Z,4.47
2018-05-02T08:04:09.794Z,3.80
2018-05-02T08:06:36.466Z,4.13
2018-05-02T08:09:03.812Z,3.50
2018-05-02T08:11:30.512Z,3.33
2018-05-02T08:13:57.430Z,3.30
2018-05-02T08:16:24.626Z,3.53
2018-05-02T08:18:52.096Z,3.47
2018-05-02T08:21:20.090Z,3.87
2018-05-02T08:23:47.108Z,3.93
2018-05-02T08:26:13.828Z,4.00
2018-05-02T08:28:40.949Z,3.30
2018-05-02T08:31:08.396Z,2.93
2018-05-02T08:33:36.809Z,3.60
2018-05-02T08:36:04.357Z,3.00
2018-05-02T08:38:31.919Z,2.80
2018-05-02T08:41:01.256Z,3.20
2018-05-02T08:43:28.773Z,2.70
2018-05-02T08:45:56.144Z,2.57
2018-05-02T08:48:23.781Z,2.63
2018-05-02T08:50:51.179Z,2.80
2018-05-02T08:53:18.072Z,2.37
2018-05-02T08:55:44.755Z,2.73
2018-05-02T08:58:12.305Z,2.40
2018-05-02T09:00:39.015Z,2.90
2018-05-02T09:03:05.782Z,2.67
2018-05-02T09:05:53.159Z,2.47
2018-05-02T09:08:19.831Z,2.70
2018-05-02T09:10:48.551Z,2.57
2018-05-02T09:13:15.194Z,2.30
2018-05-02T09:15:41.854Z,2.60
2018-05-02T09:18:08.748Z,2.73
2018-05-02T09:20:36.217Z,2.47
2018-05-02T09:23:03.091Z,2.27
2018-05-02T09:25:29.806Z,2.50
2018-05-02T09:27:56.754Z,2.53
2018-05-02T09:30:23.466Z,5.60
2018-05-02T09:32:50.106Z,2.60
2018-05-02T09:35:17.811Z,2.57
2018-05-02T09:37:44.575Z,1.83
2018-05-02T09:40:12.493Z,2.10
2018-05-02T09:42:39.889Z,2.30
2018-05-02T09:45:06.506Z,2.10
2018-05-02T09:47:33.196Z,2.40
2018-05-02T09:49:59.850Z,2.23
2018-05-02T09:52:27.208Z,2.70
2018-05-02T09:54:54.668Z,2.37
2018-05-02T09:57:22.089Z,2.60
2018-05-02T09:59:48.765Z,2.57
2018-05-02T10:02:16.139Z,2.53
2018-05-02T10:04:42.876Z,2.77
2018-05-02T10:07:10.279Z,2.70
2018-05-02T10:09:37.008Z,2.40
2018-05-02T10:12:03.670Z,3.07
2018-05-02T10:14:30.279Z,3.03
2018-05-02T10:16:56.909Z,3.13
2018-05-02T10:19:24.626Z,2.83
2018-05-02T10:21:52.028Z,2.67
2018-05-02T10:24:19.090Z,3.40
2018-05-02T10:26:45.902Z,3.03
2018-05-02T10:29:12.596Z,3.00
2018-05-02T10:31:39.237Z,3.27
2018-05-02T10:34:06.012Z,3.00
2018-05-02T10:36:34.219Z,2.80
2018-05-02T10:39:00.884Z,2.73
2018-05-02T10:41:27.501Z,3.57
2018-05-02T10:43:54.179Z,2.90
2018-05-02T10:46:20.852Z,3.30
2018-05-02T10:48:48.244Z,2.93
2018-05-02T10:51:14.872Z,2.87
2018-05-02T10:53:42.740Z,2.77
2018-05-02T10:56:09.489Z,2.60
2018-05-02T10:58:36.756Z,2.93
2018-05-02T11:01:03.567Z,3.40
2018-05-02T11:03:30.979Z,3.17
2018-05-02T11:05:57.652Z,2.90
2018-05-02T11:08:26.434Z,3.13
2018-05-02T11:10:53.824Z,2.90
2018-05-02T11:13:20.512Z,2.70
2018-05-02T11:15:47.323Z,2.97
2018-05-02T11:18:15.369Z,2.53
2018-05-02T11:20:42.257Z,2.63
2018-05-02T11:23:09.721Z,2.60
2018-05-02T11:25:36.793Z,3.00
2018-05-02T11:28:03.510Z,2.53
2018-05-02T11:30:30.216Z,2.80
2018-05-02T11:32:57.651Z,2.43
2018-05-02T11:35:24.381Z,2.50
2018-05-02T11:37:51.945Z,2.40
2018-05-02T11:40:19.428Z,2.10
2018-05-02T11:42:46.133Z,2.50
2018-05-02T11:45:13.629Z,2.13
2018-05-02T11:47:41.113Z,2.30
2018-05-02T11:50:07.794Z,2.10
2018-05-02T11:52:36.861Z,2.07
2018-05-02T11:55:03.516Z,2.40
2018-05-02T11:57:30.121Z,2.00
2018-05-02T11:59:57.031Z,2.20
2018-05-02T12:02:24.448Z,2.00
2018-05-02T12:04:51.335Z,2.10
2018-05-02T12:07:18.303Z,2.00
2018-05-02T12:09:45.033Z,2.10
2018-05-02T12:12:13.336Z,1.80
2018-05-02T12:14:39.997Z,2.40
2018-05-02T12:17:06.677Z,2.10
2018-05-02T12:19:34.124Z,2.07
2018-05-02T12:22:00.985Z,2.00
2018-05-02T12:24:27.544Z,2.20
2018-05-02T12:26:55.518Z,2.20
2018-05-02T12:29:22.220Z,2.30
2018-05-02T12:31:49.616Z,1.90
2018-05-02T12:34:16.450Z,2.20
2018-05-02T12:36:43.170Z,2.00
2018-05-02T12:39:09.993Z,1.90
2018-05-02T12:41:36.661Z,2.20
2018-05-02T12:44:04.024Z,1.97
2018-05-02T12:46:31.003Z,2.13
2018-05-02T12:48:57.771Z,2.20
2018-05-02T12:51:24.747Z,2.10
2018-05-02T12:53:53.135Z,2.40
2018-05-02T12:56:20.727Z,2.17
2018-05-02T12:58:48.895Z,2.20
2018-05-02T13:01:16.478Z,2.10
2018-05-02T13:03:44.320Z,2.13
2018-05-02T13:06:11.730Z,2.50
2018-05-02T13:08:38.497Z,2.60
2018-05-02T13:11:05.316Z,2.13
2018-05-02T13:13:32.334Z,2.30
2018-05-02T13:15:59.830Z,2.13
2018-05-02T13:18:26.595Z,2.10
2018-05-02T13:20:53.325Z,2.30
2018-05-02T13:23:20.426Z,2.47
2018-05-02T13:25:47.511Z,2.10
2018-05-02T13:28:14.952Z,2.20
2018-05-02T13:30:43.556Z,2.23
2018-05-02T13:33:10.454Z,2.30
2018-05-02T13:35:38.598Z,2.23
2018-05-02T13:38:05.479Z,2.67
2018-05-02T13:40:32.449Z,2.50
2018-05-02T13:42:59.160Z,2.77
2018-05-02T13:45:25.920Z,2.60
2018-05-02T13:47:52.597Z,2.53
2018-05-02T13:50:20.131Z,2.57
2018-05-02T13:52:47.219Z,2.10
2018-05-02T13:55:14.672Z,2.00
2018-05-02T13:57:42.242Z,2.40
2018-05-02T14:00:09.314Z,2.13
2018-05-02T14:02:36.981Z,2.50
2018-05-02T14:05:03.952Z,2.03
2018-05-02T14:07:31.002Z,2.00
2018-05-02T14:09:57.792Z,2.23
2018-05-02T14:12:25.384Z,2.97
2018-05-02T14:14:52.326Z,2.77
2018-05-02T14:17:19.125Z,2.40
2018-05-02T14:19:46.581Z,2.70
2018-05-02T14:22:14.023Z,2.60
2018-05-02T14:24:41.803Z,2.30
2018-05-02T14:27:09.356Z,2.10
2018-05-02T14:29:36.468Z,1.90
2018-05-02T14:32:03.337Z,2.00
2018-05-02T14:34:30.114Z,2.10
2018-05-02T14:36:57.027Z,2.10
2018-05-02T14:39:24.617Z,1.93
2018-05-02T14:41:52.100Z,2.10
2018-05-02T14:44:19.071Z,2.10
2018-05-02T14:46:46.585Z,1.77
2018-05-02T14:49:13.321Z,2.00
2018-05-02T14:51:40.768Z,2.13
2018-05-02T14:54:07.449Z,2.00
2018-05-02T14:56:34.114Z,2.47
2018-05-02T14:59:01.009Z,1.97
2018-05-02T15:01:28.513Z,2.33
2018-05-02T15:03:55.900Z,2.10
2018-05-02T15:06:22.605Z,1.90
2018-05-02T15:08:50.707Z,2.40
2018-05-02T15:11:17.446Z,2.60
2018-05-02T15:13:44.193Z,2.70
2018-05-02T15:16:11.624Z,2.87
2018-05-02T15:18:38.534Z,2.70
2018-05-02T15:21:05.225Z,2.73
2018-05-02T15:23:33.332Z,2.93
2018-05-02T15:26:00.700Z,2.57
2018-05-02T15:28:27.401Z,2.60
2018-05-02T15:30:54.324Z,2.40
2018-05-02T15:33:20.968Z,2.60
2018-05-02T15:35:48.501Z,2.33
2018-05-02T15:38:15.174Z,2.27
2018-05-02T15:40:42.080Z,2.27
2018-05-02T15:43:09.187Z,2.13
2018-05-02T15:45:35.857Z,2.27
2018-05-02T15:48:02.817Z,2.13
2018-05-02T15:50:29.980Z,2.30
2018-05-02T15:52:56.668Z,2.10
2018-05-02T15:55:24.111Z,2.00
2018-05-02T15:57:50.765Z,2.13
2018-05-02T16:00:18.223Z,1.90
2018-05-02T16:02:47.647Z,1.70
2018-05-02T16:05:14.270Z,2.10
2018-05-02T16:07:41.649Z,2.03
2018-05-02T16:10:10.341Z,2.20
2018-05-02T16:12:37.102Z,1.60
2018-05-02T16:15:04.731Z,1.90
2018-05-02T16:17:32.056Z,2.03
2018-05-02T16:19:58.753Z,1.70
2018-05-02T16:22:26.289Z,1.97
2018-05-02T16:24:52.951Z,1.60
2018-05-02T16:27:19.726Z,1.90
2018-05-02T16:29:46.880Z,1.90
2018-05-02T16:32:13.570Z,1.63
2018-05-02T16:34:40.273Z,1.83
2018-05-02T16:37:09.256Z,1.70
2018-05-02T16:39:35.905Z,2.30
2018-05-02T16:42:03.293Z,1.83
2018-05-02T16:44:29.957Z,2.03
2018-05-02T16:46:56.631Z,1.87
2018-05-02T16:49:23.349Z,2.10
2018-05-02T16:51:50.116Z,1.90
2018-05-02T16:54:17.696Z,2.20
2018-05-02T16:56:45.168Z,2.07
2018-05-02T16:59:11.859Z,2.03
2018-05-02T17:01:38.518Z,1.83
2018-05-02T17:04:06.547Z,1.70
2018-05-02T17:06:33.205Z,1.93
2018-05-02T17:09:00.055Z,1.70
2018-05-02T17:11:27.269Z,2.00
2018-05-02T17:13:54.016Z,1.70
2018-05-02T17:16:20.829Z,1.90
2018-05-02T17:18:49.118Z,1.70
2018-05-02T17:21:15.760Z,1.67
2018-05-02T17:23:42.562Z,1.90
2018-05-02T17:26:10.001Z,1.70
2018-05-02T17:28:36.722Z,1.80
2018-05-02T17:31:03.597Z,1.60
2018-05-02T17:33:30.385Z,1.60
2018-05-02T17:35:57.300Z,1.60
2018-05-02T17:38:24.824Z,1.77
2018-05-02T17:40:51.511Z,1.73
2018-05-02T17:43:18.433Z,1.90
2018-05-02T17:45:45.922Z,1.60
2018-05-02T17:48:12.657Z,1.73
2018-05-02T17:50:39.364Z,1.80
2018-05-02T17:53:07.067Z,1.90
2018-05-02T17:55:33.931Z,1.70
2018-05-02T17:58:00.556Z,1.63
2018-05-02T18:00:28.023Z,1.90
2018-05-02T18:02:54.766Z,1.80
2018-05-02T18:05:21.485Z,1.73
2018-05-02T18:07:48.195Z,1.67
2018-05-02T18:10:15.610Z,1.80
2018-05-02T18:12:42.409Z,1.80
2018-05-02T18:15:10.204Z,1.87
2018-05-02T18:17:36.974Z,1.80
2018-05-02T18:20:04.465Z,1.77
2018-05-02T18:22:31.956Z,1.80
2018-05-02T18:24:59.042Z,1.80
2018-05-02T18:27:25.727Z,1.57
2018-05-02T18:29:52.478Z,1.80
2018-05-02T18:32:19.229Z,1.40
2018-05-02T18:34:45.958Z,1.50
2018-05-02T18:37:12.875Z,1.60
2018-05-02T18:39:41.254Z,1.50
2018-05-02T18:42:08.692Z,1.67
2018-05-02T18:44:35.389Z,1.60
2018-05-02T18:47:02.066Z,1.87
2018-05-02T18:49:28.778Z,1.77
2018-05-02T18:51:55.440Z,1.80
2018-05-02T18:54:22.120Z,1.63
2018-05-02T18:56:48.850Z,2.10
2018-05-02T18:59:17.053Z,1.90
2018-05-02T19:01:43.756Z,1.77
2018-05-02T19:04:10.498Z,1.80
2018-05-02T19:06:37.910Z,1.60
2018-05-02T19:09:04.655Z,1.77
2018-05-02T19:11:31.390Z,1.80
2018-05-02T19:14:01.101Z,1.77
2018-05-02T19:16:27.754Z,1.43
2018-05-02T19:19:00.604Z,1.97
2018-05-02T19:21:27.282Z,1.47
2018-05-02T19:23:54.044Z,1.57
2018-05-02T19:26:27.541Z,1.50
2018-05-02T19:28:54.205Z,1.93
2018-05-02T19:31:26.936Z,1.57
2018-05-02T19:33:54.562Z,1.73
2018-05-02T19:36:21.209Z,1.80
2018-05-02T19:38:47.917Z,1.30
2018-05-02T19:41:21.411Z,1.70
2018-05-02T19:43:54.940Z,1.33
2018-05-02T19:46:21.653Z,1.60
2018-05-02T19:48:49.090Z,1.47
2018-05-02T19:51:21.997Z,1.70
2018-05-02T19:53:49.339Z,1.70
2018-05-02T19:56:16.001Z,1.33
2018-05-02T19:58:42.902Z,1.47
2018-05-02T20:01:15.703Z,1.67
2018-05-02T20:03:42.426Z,1.90
2018-05-02T20:06:09.056Z,1.70
2018-05-02T20:08:41.788Z,1.60
2018-05-02T20:11:15.312Z,2.50
2018-05-02T20:13:48.770Z,2.10
2018-05-02T20:16:15.476Z,2.20
2018-05-02T20:18:42.178Z,2.77
2018-05-02T20:21:09.606Z,2.40
2018-05-02T20:23:36.347Z,2.63
2018-05-02T20:26:03.016Z,2.87
2018-05-02T20:28:30.375Z,2.73
2018-05-02T20:30:57.945Z,2.27
2018-05-02T20:33:25.307Z,2.50
2018-05-02T20:35:52.005Z,2.40
2018-05-02T20:38:18.743Z,2.20
2018-05-02T20:40:45.437Z,2.10
2018-05-02T20:43:12.149Z,2.40
2018-05-02T20:45:39.535Z,2.43
2018-05-02T20:48:06.193Z,2.60
2018-05-02T20:50:32.845Z,2.47
2018-05-02T20:52:59.547Z,2.50
2018-05-02T20:55:26.213Z,2.70
2018-05-02T20:57:53.044Z,2.30
2018-05-02T21:00:19.776Z,2.20
2018-05-02T21:02:46.691Z,2.43
2018-05-02T21:05:14.238Z,2.30
2018-05-02T21:07:41.610Z,2.60
2018-05-02T21:10:08.289Z,2.93
2018-05-02T21:12:35.082Z,2.40
2018-05-02T21:15:01.712Z,2.43
2018-05-02T21:17:28.345Z,2.40
2018-05-02T21:19:55.001Z,2.60
2018-05-02T21:22:22.408Z,2.50
2018-05-02T21:24:49.061Z,2.60
2018-05-02T21:27:15.829Z,2.20
2018-05-02T21:29:42.472Z,2.40
2018-05-02T21:32:09.896Z,2.50
2018-05-02T21:34:36.548Z,2.53
2018-05-02T21:37:03.240Z,2.50
2018-05-02T21:39:29.869Z,2.43
2018-05-02T21:41:56.655Z,2.70
2018-05-02T21:44:23.292Z,2.67
2018-05-02T21:46:49.952Z,2.70
2018-05-02T21:49:16.671Z,2.87
2018-05-02T21:51:43.324Z,3.67
2018-05-02T21:54:10.085Z,3.13
2018-05-02T21:56:36.682Z,3.50
2018-05-02T21:59:03.382Z,3.20
2018-05-02T22:01:30.054Z,3.53
2018-05-02T22:03:56.732Z,2.87
2018-05-02T22:06:24.280Z,2.37
2018-05-02T22:08:50.914Z,3.00
2018-05-02T22:11:17.680Z,2.50
2018-05-02T22:13:45.073Z,3.07
2018-05-02T22:16:11.747Z,3.43
2018-05-02T22:18:38.384Z,3.33
2018-05-02T22:21:05.114Z,3.40
2018-05-02T22:23:31.753Z,3.80
2018-05-02T22:25:58.388Z,3.47
2018-05-02T22:28:25.050Z,2.73
2018-05-02T22:30:52.534Z,2.90
2018-05-02T22:33:19.943Z,2.80
2018-05-02T22:35:46.626Z,2.53
2018-05-02T22:38:14.025Z,2.27
2018-05-02T22:40:40.719Z,2.27
2018-05-02T22:43:08.120Z,2.83
2018-05-02T22:45:34.762Z,2.60
2018-05-02T22:48:01.403Z,2.57
2018-05-02T22:50:28.069Z,2.33
2018-05-02T22:52:54.729Z,2.60
2018-05-02T22:55:22.146Z,2.47
2018-05-02T22:57:49.555Z,2.63
2018-05-02T23:00:16.234Z,2.40
2018-05-02T23:02:43.118Z,2.70
2018-05-02T23:05:11.243Z,2.50
2018-05-02T23:07:37.893Z,2.47
2018-05-02T23:10:04.528Z,2.27
2018-05-02T23:12:31.201Z,2.37
2018-05-02T23:14:58.575Z,2.60
2018-05-02T23:17:25.921Z,2.80
2018-05-02T23:19:53.329Z,3.10
2018-05-02T23:22:20.064Z,2.77
2018-05-02T23:24:46.689Z,2.70
2018-05-02T23:27:13.319Z,2.60
2018-05-02T23:29:40.029Z,2.87
2018-05-02T23:32:07.509Z,2.93
2018-05-02T23:34:34.132Z,2.90
2018-05-02T23:37:01.502Z,2.83
2018-05-02T23:39:28.141Z,3.07
2018-05-02T23:41:54.982Z,3.17
2018-05-02T23:44:21.629Z,2.67
2018-05-02T23:46:48.328Z,3.03
2018-05-02T23:49:14.948Z,3.10
2018-05-02T23:51:41.812Z,4.10
2018-05-02T23:54:08.417Z,4.70
2018-05-02T23:56:35.090Z,4.60
2018-05-02T23:59:02.632Z,4.40
